Terminal Aerodrome Forecast
Issued by NWS

Home | Current Version | Previous Version | Text Only | Print | Product List | Glossary On
Versions: 1 2 3 4 5 6 7 8 9 10 11 12 13 14 15
000
FTAK31 PANC 312330
TAFAIL
TAF
PAIL 312330Z 0100/0124 10010G18KT P6SM SCT070 BKN100
     FM010900 08008KT P6SM SCT070 BKN120
     FM011200 VRB04KT P6SM BKN120
     FM012200 16008KT P6SM BKN150=

USA.gov is the U.S. government's official web portal to all federal, state and local government web resources and services.